Terminal Aerodrome Forecast
Issued by NWS

Home | Current Version | Previous Version | Text Only | Print | Product List | Glossary On
Versions: 1 2 3 4 5 6 7 8 9 10 11 12 13 14
000
FTUS45 KRIW 241100
TAFRKS
TAF
KRKS 241123Z 2412/2512 36006KT 6SM -RA BR SCT008 OVC016
      TEMPO 2412/2416 4SM RA BR BKN008
     FM241700 05011KT P6SM VCSH SCT020 OVC035
     FM242000 06012KT P6SM VCTS SCT020 BKN050CB
     FM250300 05008KT P6SM VCSH SCT015 OVC035=

USA.gov is the U.S. government's official web portal to all federal, state and local government web resources and services.